sensor_id;sensor_type;location;lat;lon;timestamp;temperature;humidity
6355;DHT22;3210;48.708;9.030;2023-03-01T00:00:00;-2.10;1.00
6355;DHT22;3210;48.708;9.030;2023-03-01T00:02:28;-2.10;1.00
6355;DHT22;3210;48.708;9.030;2023-03-01T00:04:55;-2.10;1.00
6355;DHT22;3210;48.708;9.030;2023-03-01T00:07:22;-2.10;1.00
6355;DHT22;3210;48.708;9.030;2023-03-01T00:09:50;-2.10;1.00
6355;DHT22;3210;48.708;9.030;2023-03-01T00:12:16;-2.10;1.00
6355;DHT22;3210;48.708;9.030;2023-03-01T00:14:43;-2.20;1.00
6355;DHT22;3210;48.708;9.030;2023-03-01T00:17:10;-2.20;1.00
6355;DHT22;3210;48.708;9.030;2023-03-01T00:19:37;-2.20;1.00
6355;DHT22;3210;48.708;9.030;2023-03-01T00:22:04;-2.30;1.00
6355;DHT22;3210;48.708;9.030;2023-03-01T00:24:30;-2.30;1.00
6355;DHT22;3210;48.708;9.030;2023-03-01T00:26:58;-2.30;1.00
6355;DHT22;3210;48.708;9.030;2023-03-01T00:29:25;-2.30;1.00
6355;DHT22;3210;48.708;9.030;2023-03-01T00:31:52;-2.30;1.00
6355;DHT22;3210;48.708;9.030;2023-03-01T00:34:19;-2.40;1.00
6355;DHT22;3210;48.708;9.030;2023-03-01T00:36:45;-2.40;1.00
6355;DHT22;3210;48.708;9.030;2023-03-01T00:39:14;-2.50;1.00
6355;DHT22;3210;48.708;9.030;2023-03-01T00:41:41;-2.60;1.00
6355;DHT22;3210;48.708;9.030;2023-03-01T00:44:10;-2.60;1.00
6355;DHT22;3210;48.708;9.030;2023-03-01T00:46:37;-2.60;1.00
6355;DHT22;3210;48.708;9.030;2023-03-01T00:49:04;-2.70;1.00
6355;DHT22;3210;48.708;9.030;2023-03-01T00:51:31;-2.70;1.00
6355;DHT22;3210;48.708;9.030;2023-03-01T00:53:59;-2.70;1.00
6355;DHT22;3210;48.708;9.030;2023-03-01T00:56:26;-2.70;1.00
6355;DHT22;3210;48.708;9.030;2023-03-01T00:58:53;-2.60;1.00
6355;DHT22;3210;48.708;9.030;2023-03-01T01:01:24;-2.60;1.00
6355;DHT22;3210;48.708;9.030;2023-03-01T01:03:54;-2.60;1.00
6355;DHT22;3210;48.708;9.030;2023-03-01T01:06:23;-2.60;1.00
6355;DHT22;3210;48.708;9.030;2023-03-01T01:08:50;-2.60;1.00
6355;DHT22;3210;48.708;9.030;2023-03-01T01:11:18;-2.50;1.00
6355;DHT22;3210;48.708;9.030;2023-03-01T01:13:45;-2.50;1.00
6355;DHT22;3210;48.708;9.030;2023-03-01T01:16:13;-2.60;1.00
6355;DHT22;3210;48.708;9.030;2023-03-01T01:18:42;-2.60;1.00
6355;DHT22;3210;48.708;9.030;2023-03-01T01:21:10;-2.60;1.00
6355;DHT22;3210;48.708;9.030;2023-03-01T01:23:38;-2.60;1.00
6355;DHT22;3210;48.708;9.030;2023-03-01T01:26:06;-2.50;1.00
6355;DHT22;3210;48.708;9.030;2023-03-01T01:28:34;-2.50;1.00
6355;DHT22;3210;48.708;9.030;2023-03-01T01:31:01;-2.40;1.00
6355;DHT22;3210;48.708;9.030;2023-03-01T01:33:28;-2.40;1.00
6355;DHT22;3210;48.708;9.030;2023-03-01T01:35:56;-2.40;1.00
6355;DHT22;3210;48.708;9.030;2023-03-01T01:38:23;-2.40;1.00
6355;DHT22;3210;48.708;9.030;2023-03-01T01:40:50;-2.40;1.00
6355;DHT22;3210;48.708;9.030;2023-03-01T01:43:20;-2.40;1.00
6355;DHT22;3210;48.708;9.030;2023-03-01T01:45:48;-2.50;1.00
6355;DHT22;3210;48.708;9.030;2023-03-01T01:48:18;-2.50;1.00
6355;DHT22;3210;48.708;9.030;2023-03-01T01:50:58;-2.60;1.00
6355;DHT22;3210;48.708;9.030;2023-03-01T01:53:25;-2.60;1.00
6355;DHT22;3210;48.708;9.030;2023-03-01T01:55:57;-2.60;1.00
6355;DHT22;3210;48.708;9.030;2023-03-01T01:58:26;-2.60;1.00
6355;DHT22;3210;48.708;9.030;2023-03-01T02:00:54;-2.70;1.00
6355;DHT22;3210;48.708;9.030;2023-03-01T02:03:24;-2.70;1.00
6355;DHT22;3210;48.708;9.030;2023-03-01T02:06:00;-2.70;1.00
6355;DHT22;3210;48.708;9.030;2023-03-01T02:08:29;-2.70;1.00
6355;DHT22;3210;48.708;9.030;2023-03-01T02:10:58;-2.70;1.00
6355;DHT22;3210;48.708;9.030;2023-03-01T02:13:26;-2.70;1.00
6355;DHT22;3210;48.708;9.030;2023-03-01T02:15:53;-2.70;1.00
6355;DHT22;3210;48.708;9.030;2023-03-01T02:18:21;-2.70;1.00
6355;DHT22;3210;48.708;9.030;2023-03-01T02:20:58;-2.60;1.00
6355;DHT22;3210;48.708;9.030;2023-03-01T02:23:29;-2.50;1.00
6355;DHT22;3210;48.708;9.030;2023-03-01T02:26:01;-2.50;1.00
6355;DHT22;3210;48.708;9.030;2023-03-01T02:28:35;-2.50;1.00
6355;DHT22;3210;48.708;9.030;2023-03-01T02:31:05;-2.40;1.00
6355;DHT22;3210;48.708;9.030;2023-03-01T02:33:47;-2.40;1.00
6355;DHT22;3210;48.708;9.030;2023-03-01T02:36:17;-2.30;1.00
6355;DHT22;3210;48.708;9.030;2023-03-01T02:38:45;-2.30;1.00
6355;DHT22;3210;48.708;9.030;2023-03-01T02:41:16;-2.30;1.00
6355;DHT22;3210;48.708;9.030;2023-03-01T02:43:45;-2.30;1.00
6355;DHT22;3210;48.708;9.030;2023-03-01T02:46:16;-2.20;1.00
6355;DHT22;3210;48.708;9.030;2023-03-01T02:48:45;-2.10;1.00
6355;DHT22;3210;48.708;9.030;2023-03-01T02:51:25;-2.20;1.00
6355;DHT22;3210;48.708;9.030;2023-03-01T02:54:03;-2.10;1.00
6355;DHT22;3210;48.708;9.030;2023-03-01T02:56:34;-2.10;1.00
6355;DHT22;3210;48.708;9.030;2023-03-01T02:59:03;-2.20;1.00
6355;DHT22;3210;48.708;9.030;2023-03-01T03:01:30;-2.20;1.00
6355;DHT22;3210;48.708;9.030;2023-03-01T03:04:03;-2.10;1.00
6355;DHT22;3210;48.708;9.030;2023-03-01T03:06:30;-2.10;1.00
6355;DHT22;3210;48.708;9.030;2023-03-01T03:08:57;-2.00;1.00
6355;DHT22;3210;48.708;9.030;2023-03-01T03:11:23;-2.00;1.00
6355;DHT22;3210;48.708;9.030;2023-03-01T03:13:50;-2.10;1.00
6355;DHT22;3210;48.708;9.030;2023-03-01T03:16:20;-2.10;1.00
6355;DHT22;3210;48.708;9.030;2023-03-01T03:18:47;-2.10;1.00
6355;DHT22;3210;48.708;9.030;2023-03-01T03:21:13;-2.10;1.00
6355;DHT22;3210;48.708;9.030;2023-03-01T03:23:41;-2.10;1.00
6355;DHT22;3210;48.708;9.030;2023-03-01T03:26:08;-2.00;1.00
6355;DHT22;3210;48.708;9.030;2023-03-01T03:28:39;-2.00;1.00
6355;DHT22;3210;48.708;9.030;2023-03-01T03:31:06;-2.00;1.00
6355;DHT22;3210;48.708;9.030;2023-03-01T03:33:34;-2.00;1.00
6355;DHT22;3210;48.708;9.030;2023-03-01T03:36:02;-2.00;1.00
6355;DHT22;3210;48.708;9.030;2023-03-01T03:38:29;-2.00;1.00
6355;DHT22;3210;48.708;9.030;2023-03-01T03:41:01;-2.00;1.00
6355;DHT22;3210;48.708;9.030;2023-03-01T03:43:30;-2.00;1.00
6355;DHT22;3210;48.708;9.030;2023-03-01T03:45:57;-2.00;1.00
6355;DHT22;3210;48.708;9.030;2023-03-01T03:48:25;-1.90;1.00
6355;DHT22;3210;48.708;9.030;2023-03-01T03:50:55;-1.90;1.00
6355;DHT22;3210;48.708;9.030;2023-03-01T03:53:24;-1.90;1.00
6355;DHT22;3210;48.708;9.030;2023-03-01T03:55:51;-1.90;1.00
6355;DHT22;3210;48.708;9.030;2023-03-01T03:58:19;-1.90;1.00
6355;DHT22;3210;48.708;9.030;2023-03-01T04:00:48;-1.90;1.00
6355;DHT22;3210;48.708;9.030;2023-03-01T04:03:16;-1.90;1.00
6355;DHT22;3210;48.708;9.030;2023-03-01T04:05:44;-1.90;1.00
6355;DHT22;3210;48.708;9.030;2023-03-01T04:08:13;-2.00;1.00
6355;DHT22;3210;48.708;9.030;2023-03-01T04:10:41;-2.00;1.00
6355;DHT22;3210;48.708;9.030;2023-03-01T04:13:10;-2.00;1.00
6355;DHT22;3210;48.708;9.030;2023-03-01T04:15:37;-1.90;1.00
6355;DHT22;3210;48.708;9.030;2023-03-01T04:18:04;-2.00;1.00
6355;DHT22;3210;48.708;9.030;2023-03-01T04:20:34;-1.90;1.00
6355;DHT22;3210;48.708;9.030;2023-03-01T04:23:02;-1.80;1.00
6355;DHT22;3210;48.708;9.030;2023-03-01T04:25:38;-1.90;1.00
6355;DHT22;3210;48.708;9.030;2023-03-01T04:28:06;-1.90;1.00
6355;DHT22;3210;48.708;9.030;2023-03-01T04:30:33;-1.80;1.00
6355;DHT22;3210;48.708;9.030;2023-03-01T04:33:02;-1.80;1.00
6355;DHT22;3210;48.708;9.030;2023-03-01T04:35:29;-1.80;1.00
6355;DHT22;3210;48.708;9.030;2023-03-01T04:37:56;-1.80;1.00
6355;DHT22;3210;48.708;9.030;2023-03-01T04:40:23;-1.80;1.00
6355;DHT22;3210;48.708;9.030;2023-03-01T04:42:51;-1.80;1.00
6355;DHT22;3210;48.708;9.030;2023-03-01T04:45:18;-1.80;1.00
6355;DHT22;3210;48.708;9.030;2023-03-01T04:47:46;-1.80;1.00
6355;DHT22;3210;48.708;9.030;2023-03-01T04:50:15;-1.70;1.00
6355;DHT22;3210;48.708;9.030;2023-03-01T04:52:42;-1.70;1.00
6355;DHT22;3210;48.708;9.030;2023-03-01T04:55:10;-1.70;1.00
6355;DHT22;3210;48.708;9.030;2023-03-01T04:57:37;-1.60;1.00
6355;DHT22;3210;48.708;9.030;2023-03-01T05:00:08;-1.60;1.00
6355;DHT22;3210;48.708;9.030;2023-03-01T05:02:49;-1.60;1.00
6355;DHT22;3210;48.708;9.030;2023-03-01T05:05:19;-1.60;1.00
6355;DHT22;3210;48.708;9.030;2023-03-01T05:07:51;-1.60;1.00
6355;DHT22;3210;48.708;9.030;2023-03-01T05:10:18;-1.70;1.00
6355;DHT22;3210;48.708;9.030;2023-03-01T05:12:45;-1.60;1.00
6355;DHT22;3210;48.708;9.030;2023-03-01T05:15:13;-1.60;1.00
6355;DHT22;3210;48.708;9.030;2023-03-01T05:17:40;-1.50;1.00
6355;DHT22;3210;48.708;9.030;2023-03-01T05:20:08;-1.60;1.00
6355;DHT22;3210;48.708;9.030;2023-03-01T05:22:36;-1.60;1.00
6355;DHT22;3210;48.708;9.030;2023-03-01T05:25:04;-1.60;1.00
6355;DHT22;3210;48.708;9.030;2023-03-01T05:27:30;-1.60;1.00
6355;DHT22;3210;48.708;9.030;2023-03-01T05:29:57;-1.60;1.00
6355;DHT22;3210;48.708;9.030;2023-03-01T05:32:25;-1.50;1.00
6355;DHT22;3210;48.708;9.030;2023-03-01T05:34:52;-1.60;1.00
6355;DHT22;3210;48.708;9.030;2023-03-01T05:37:20;-1.60;1.00
6355;DHT22;3210;48.708;9.030;2023-03-01T05:39:47;-1.60;1.00
6355;DHT22;3210;48.708;9.030;2023-03-01T05:42:15;-1.50;1.00
6355;DHT22;3210;48.708;9.030;2023-03-01T05:44:42;-1.50;1.00
6355;DHT22;3210;48.708;9.030;2023-03-01T05:47:10;-1.50;1.00
6355;DHT22;3210;48.708;9.030;2023-03-01T05:49:38;-1.50;1.00
6355;DHT22;3210;48.708;9.030;2023-03-01T05:52:04;-1.50;1.00
6355;DHT22;3210;48.708;9.030;2023-03-01T05:54:31;-1.50;1.00
6355;DHT22;3210;48.708;9.030;2023-03-01T05:56:58;-1.40;1.00
6355;DHT22;3210;48.708;9.030;2023-03-01T05:59:25;-1.40;1.00
6355;DHT22;3210;48.708;9.030;2023-03-01T06:01:52;-1.40;1.00
6355;DHT22;3210;48.708;9.030;2023-03-01T06:04:19;-1.40;1.00
6355;DHT22;3210;48.708;9.030;2023-03-01T06:06:47;-1.40;1.00
6355;DHT22;3210;48.708;9.030;2023-03-01T06:09:15;-1.30;1.00
6355;DHT22;3210;48.708;9.030;2023-03-01T06:11:42;-1.30;1.00
6355;DHT22;3210;48.708;9.030;2023-03-01T06:14:09;-1.30;1.00
6355;DHT22;3210;48.708;9.030;2023-03-01T06:16:38;-1.20;1.00
6355;DHT22;3210;48.708;9.030;2023-03-01T06:19:05;-1.00;1.00
6355;DHT22;3210;48.708;9.030;2023-03-01T06:21:31;-1.10;1.00
6355;DHT22;3210;48.708;9.030;2023-03-01T06:24:00;-1.10;1.00
6355;DHT22;3210;48.708;9.030;2023-03-01T06:26:27;-1.10;1.00
6355;DHT22;3210;48.708;9.030;2023-03-01T06:28:53;-1.10;1.00
6355;DHT22;3210;48.708;9.030;2023-03-01T06:31:20;-1.10;1.00
6355;DHT22;3210;48.708;9.030;2023-03-01T06:33:47;-1.20;1.00
6355;DHT22;3210;48.708;9.030;2023-03-01T06:36:14;-1.20;1.00
6355;DHT22;3210;48.708;9.030;2023-03-01T06:38:44;-1.20;1.00
6355;DHT22;3210;48.708;9.030;2023-03-01T06:41:12;-1.10;1.00
6355;DHT22;3210;48.708;9.030;2023-03-01T06:43:39;-1.20;1.00
6355;DHT22;3210;48.708;9.030;2023-03-01T06:46:06;-1.10;1.00
6355;DHT22;3210;48.708;9.030;2023-03-01T06:48:33;-1.00;1.00
6355;DHT22;3210;48.708;9.030;2023-03-01T06:51:00;-1.10;1.00
6355;DHT22;3210;48.708;9.030;2023-03-01T06:53:27;-1.10;1.00
6355;DHT22;3210;48.708;9.030;2023-03-01T06:55:55;-1.10;1.00
6355;DHT22;3210;48.708;9.030;2023-03-01T06:58:23;-1.10;1.00
6355;DHT22;3210;48.708;9.030;2023-03-01T07:00:50;-1.10;1.00
6355;DHT22;3210;48.708;9.030;2023-03-01T07:03:17;-1.20;1.00
6355;DHT22;3210;48.708;9.030;2023-03-01T07:05:43;-1.20;1.00
6355;DHT22;3210;48.708;9.030;2023-03-01T07:08:10;-1.20;1.00
6355;DHT22;3210;48.708;9.030;2023-03-01T07:10:37;-1.20;1.00
6355;DHT22;3210;48.708;9.030;2023-03-01T07:13:04;-1.10;1.00
6355;DHT22;3210;48.708;9.030;2023-03-01T07:15:33;-1.10;1.00
6355;DHT22;3210;48.708;9.030;2023-03-01T07:18:00;-1.00;1.00
6355;DHT22;3210;48.708;9.030;2023-03-01T07:20:27;-1.00;1.00
6355;DHT22;3210;48.708;9.030;2023-03-01T07:22:55;-1.10;1.00
6355;DHT22;3210;48.708;9.030;2023-03-01T07:25:24;-1.10;1.00
6355;DHT22;3210;48.708;9.030;2023-03-01T07:27:51;-1.20;1.00
6355;DHT22;3210;48.708;9.030;2023-03-01T07:30:18;-1.20;1.00
6355;DHT22;3210;48.708;9.030;2023-03-01T07:32:46;-1.20;1.00
6355;DHT22;3210;48.708;9.030;2023-03-01T07:35:13;-1.10;1.00
6355;DHT22;3210;48.708;9.030;2023-03-01T07:37:41;-1.10;1.00
6355;DHT22;3210;48.708;9.030;2023-03-01T07:40:09;-1.00;1.00
6355;DHT22;3210;48.708;9.030;2023-03-01T07:42:36;-1.10;1.00
6355;DHT22;3210;48.708;9.030;2023-03-01T07:45:03;-1.00;1.00
6355;DHT22;3210;48.708;9.030;2023-03-01T07:47:30;-0.90;1.00
6355;DHT22;3210;48.708;9.030;2023-03-01T07:49:58;-0.90;1.00
6355;DHT22;3210;48.708;9.030;2023-03-01T07:52:26;-0.70;1.00
6355;DHT22;3210;48.708;9.030;2023-03-01T07:54:53;-0.70;1.00
6355;DHT22;3210;48.708;9.030;2023-03-01T07:57:20;-0.70;1.00
6355;DHT22;3210;48.708;9.030;2023-03-01T07:59:46;-0.60;1.00
6355;DHT22;3210;48.708;9.030;2023-03-01T08:02:13;-0.50;1.00
6355;DHT22;3210;48.708;9.030;2023-03-01T08:04:41;-0.30;1.00
6355;DHT22;3210;48.708;9.030;2023-03-01T08:07:09;-0.30;1.00
6355;DHT22;3210;48.708;9.030;2023-03-01T08:09:36;-0.20;1.00
6355;DHT22;3210;48.708;9.030;2023-03-01T08:12:03;-0.20;1.00
6355;DHT22;3210;48.708;9.030;2023-03-01T08:14:31;-0.10;1.00
6355;DHT22;3210;48.708;9.030;2023-03-01T08:16:58;0.10;1.00
6355;DHT22;3210;48.708;9.030;2023-03-01T08:19:24;0.10;1.00
6355;DHT22;3210;48.708;9.030;2023-03-01T08:21:53;0.20;1.00
6355;DHT22;3210;48.708;9.030;2023-03-01T08:24:21;0.30;1.00
6355;DHT22;3210;48.708;9.030;2023-03-01T08:26:48;0.40;1.00
6355;DHT22;3210;48.708;9.030;2023-03-01T08:29:15;0.50;1.00
6355;DHT22;3210;48.708;9.030;2023-03-01T08:31:42;0.60;1.00
6355;DHT22;3210;48.708;9.030;2023-03-01T08:34:10;0.70;1.00
6355;DHT22;3210;48.708;9.030;2023-03-01T08:36:39;0.80;1.00
6355;DHT22;3210;48.708;9.030;2023-03-01T08:39:07;0.80;1.00
6355;DHT22;3210;48.708;9.030;2023-03-01T08:41:36;0.80;1.00
6355;DHT22;3210;48.708;9.030;2023-03-01T08:44:04;0.80;1.00
6355;DHT22;3210;48.708;9.030;2023-03-01T08:46:34;0.90;1.00
6355;DHT22;3210;48.708;9.030;2023-03-01T08:49:04;1.00;1.00
6355;DHT22;3210;48.708;9.030;2023-03-01T08:51:31;0.90;1.00
6355;DHT22;3210;48.708;9.030;2023-03-01T08:54:02;1.00;1.00
6355;DHT22;3210;48.708;9.030;2023-03-01T08:56:28;1.10;1.00
6355;DHT22;3210;48.708;9.030;2023-03-01T08:58:57;1.20;1.00
6355;DHT22;3210;48.708;9.030;2023-03-01T09:01:24;1.30;1.00
6355;DHT22;3210;48.708;9.030;2023-03-01T09:03:51;1.20;1.00
6355;DHT22;3210;48.708;9.030;2023-03-01T09:06:18;1.20;1.00
6355;DHT22;3210;48.708;9.030;2023-03-01T09:08:46;1.30;1.00
6355;DHT22;3210;48.708;9.030;2023-03-01T09:11:15;1.30;1.00
6355;DHT22;3210;48.708;9.030;2023-03-01T09:13:43;1.30;1.00
6355;DHT22;3210;48.708;9.030;2023-03-01T09:16:12;1.40;1.00
6355;DHT22;3210;48.708;9.030;2023-03-01T09:18:39;1.10;1.00
6355;DHT22;3210;48.708;9.030;2023-03-01T09:21:07;1.10;1.00
6355;DHT22;3210;48.708;9.030;2023-03-01T09:23:34;1.20;1.00
6355;DHT22;3210;48.708;9.030;2023-03-01T09:26:04;1.30;1.00
6355;DHT22;3210;48.708;9.030;2023-03-01T09:28:31;1.20;1.00
6355;DHT22;3210;48.708;9.030;2023-03-01T09:30:58;1.40;1.00
6355;DHT22;3210;48.708;9.030;2023-03-01T09:33:27;1.40;1.00
6355;DHT22;3210;48.708;9.030;2023-03-01T09:35:57;1.10;1.00
6355;DHT22;3210;48.708;9.030;2023-03-01T09:38:24;1.30;1.00
6355;DHT22;3210;48.708;9.030;2023-03-01T09:40:52;1.40;1.00
6355;DHT22;3210;48.708;9.030;2023-03-01T09:43:21;1.60;1.00
6355;DHT22;3210;48.708;9.030;2023-03-01T09:45:54;1.70;1.00
6355;DHT22;3210;48.708;9.030;2023-03-01T09:48:26;1.80;1.00
6355;DHT22;3210;48.708;9.030;2023-03-01T09:50:54;1.80;1.00
6355;DHT22;3210;48.708;9.030;2023-03-01T09:53:22;2.00;1.00
6355;DHT22;3210;48.708;9.030;2023-03-01T09:55:56;1.90;1.00
6355;DHT22;3210;48.708;9.030;2023-03-01T09:58:39;2.00;1.00
6355;DHT22;3210;48.708;9.030;2023-03-01T10:01:23;1.90;1.00
6355;DHT22;3210;48.708;9.030;2023-03-01T10:04:20;2.10;1.00
6355;DHT22;3210;48.708;9.030;2023-03-01T10:06:58;2.20;1.00
6355;DHT22;3210;48.708;9.030;2023-03-01T10:09:30;2.50;1.00
6355;DHT22;3210;48.708;9.030;2023-03-01T10:12:00;2.70;1.00
6355;DHT22;3210;48.708;9.030;2023-03-01T10:14:32;2.80;1.00
6355;DHT22;3210;48.708;9.030;2023-03-01T10:17:03;2.80;1.00
6355;DHT22;3210;48.708;9.030;2023-03-01T10:19:34;2.70;1.00
6355;DHT22;3210;48.708;9.030;2023-03-01T10:22:11;2.90;1.00
6355;DHT22;3210;48.708;9.030;2023-03-01T10:24:39;2.60;1.00
6355;DHT22;3210;48.708;9.030;2023-03-01T10:27:10;2.90;1.00
6355;DHT22;3210;48.708;9.030;2023-03-01T10:29:41;3.10;1.00
6355;DHT22;3210;48.708;9.030;2023-03-01T10:32:10;3.10;1.00
6355;DHT22;3210;48.708;9.030;2023-03-01T10:34:37;3.40;1.00
6355;DHT22;3210;48.708;9.030;2023-03-01T10:37:12;3.50;1.00
6355;DHT22;3210;48.708;9.030;2023-03-01T10:39:55;3.30;1.00
6355;DHT22;3210;48.708;9.030;2023-03-01T10:42:26;3.40;1.00
6355;DHT22;3210;48.708;9.030;2023-03-01T10:44:54;3.40;1.00
6355;DHT22;3210;48.708;9.030;2023-03-01T10:47:23;3.50;1.00
6355;DHT22;3210;48.708;9.030;2023-03-01T10:49:57;3.60;1.00
6355;DHT22;3210;48.708;9.030;2023-03-01T10:52:29;3.60;1.00
6355;DHT22;3210;48.708;9.030;2023-03-01T10:54:58;3.70;1.00
6355;DHT22;3210;48.708;9.030;2023-03-01T10:57:37;4.00;1.00
6355;DHT22;3210;48.708;9.030;2023-03-01T11:00:20;3.90;1.00
6355;DHT22;3210;48.708;9.030;2023-03-01T11:02:49;4.10;1.00
6355;DHT22;3210;48.708;9.030;2023-03-01T11:05:19;4.00;1.00
6355;DHT22;3210;48.708;9.030;2023-03-01T11:07:52;4.00;1.00
6355;DHT22;3210;48.708;9.030;2023-03-01T11:10:21;4.20;1.00
6355;DHT22;3210;48.708;9.030;2023-03-01T11:12:50;4.10;1.00
6355;DHT22;3210;48.708;9.030;2023-03-01T11:15:26;4.00;1.00
6355;DHT22;3210;48.708;9.030;2023-03-01T11:17:53;4.00;1.00
6355;DHT22;3210;48.708;9.030;2023-03-01T11:20:30;3.90;1.00
6355;DHT22;3210;48.708;9.030;2023-03-01T11:23:02;4.00;1.00
6355;DHT22;3210;48.708;9.030;2023-03-01T11:25:33;4.40;1.00
6355;DHT22;3210;48.708;9.030;2023-03-01T11:28:02;4.40;1.00
6355;DHT22;3210;48.708;9.030;2023-03-01T11:30:34;4.50;1.00
6355;DHT22;3210;48.708;9.030;2023-03-01T11:33:10;4.70;1.00
6355;DHT22;3210;48.708;9.030;2023-03-01T11:35:44;4.70;1.00
6355;DHT22;3210;48.708;9.030;2023-03-01T11:38:20;4.20;1.00
6355;DHT22;3210;48.708;9.030;2023-03-01T11:40:52;4.00;1.00
6355;DHT22;3210;48.708;9.030;2023-03-01T11:43:23;4.10;1.00
6355;DHT22;3210;48.708;9.030;2023-03-01T11:46:18;4.10;1.00
6355;DHT22;3210;48.708;9.030;2023-03-01T11:48:55;4.40;1.00
6355;DHT22;3210;48.708;9.030;2023-03-01T11:51:36;4.50;1.00
6355;DHT22;3210;48.708;9.030;2023-03-01T11:54:21;4.50;1.00
6355;DHT22;3210;48.708;9.030;2023-03-01T11:56:55;4.60;1.00
6355;DHT22;3210;48.708;9.030;2023-03-01T11:59:45;4.50;1.00
6355;DHT22;3210;48.708;9.030;2023-03-01T12:02:44;4.60;1.00
6355;DHT22;3210;48.708;9.030;2023-03-01T12:05:24;4.80;1.00
6355;DHT22;3210;48.708;9.030;2023-03-01T12:07:55;5.00;1.00
6355;DHT22;3210;48.708;9.030;2023-03-01T12:10:27;5.20;1.00
6355;DHT22;3210;48.708;9.030;2023-03-01T12:13:23;5.20;1.00
6355;DHT22;3210;48.708;9.030;2023-03-01T12:15:59;5.20;1.00
6355;DHT22;3210;48.708;9.030;2023-03-01T12:18:38;5.20;1.00
6355;DHT22;3210;48.708;9.030;2023-03-01T12:21:14;5.40;1.00
6355;DHT22;3210;48.708;9.030;2023-03-01T12:24:06;5.60;1.00
6355;DHT22;3210;48.708;9.030;2023-03-01T12:26:44;5.70;1.00
6355;DHT22;3210;48.708;9.030;2023-03-01T12:29:23;5.60;1.00
6355;DHT22;3210;48.708;9.030;2023-03-01T12:32:23;5.80;1.00
6355;DHT22;3210;48.708;9.030;2023-03-01T12:35:14;5.70;1.00
6355;DHT22;3210;48.708;9.030;2023-03-01T12:37:54;5.90;1.00
6355;DHT22;3210;48.708;9.030;2023-03-01T12:40:33;5.80;1.00
6355;DHT22;3210;48.708;9.030;2023-03-01T12:43:11;5.70;1.00
6355;DHT22;3210;48.708;9.030;2023-03-01T12:45:47;5.90;1.00
6355;DHT22;3210;48.708;9.030;2023-03-01T12:48:27;5.90;1.00
6355;DHT22;3210;48.708;9.030;2023-03-01T12:51:01;5.80;1.00
6355;DHT22;3210;48.708;9.030;2023-03-01T12:53:30;5.80;1.00
6355;DHT22;3210;48.708;9.030;2023-03-01T12:56:00;5.40;1.00
6355;DHT22;3210;48.708;9.030;2023-03-01T12:58:33;5.20;1.00
6355;DHT22;3210;48.708;9.030;2023-03-01T13:01:08;5.40;1.00
6355;DHT22;3210;48.708;9.030;2023-03-01T13:04:01;5.50;1.00
6355;DHT22;3210;48.708;9.030;2023-03-01T13:06:34;5.70;1.00
6355;DHT22;3210;48.708;9.030;2023-03-01T13:09:10;5.90;1.00
6355;DHT22;3210;48.708;9.030;2023-03-01T13:11:41;6.00;1.00
6355;DHT22;3210;48.708;9.030;2023-03-01T13:17:33;6.10;1.00
6355;DHT22;3210;48.708;9.030;2023-03-01T13:20:00;6.10;1.00
6355;DHT22;3210;48.708;9.030;2023-03-01T13:22:30;6.20;1.00
6355;DHT22;3210;48.708;9.030;2023-03-01T13:25:02;6.30;1.00
6355;DHT22;3210;48.708;9.030;2023-03-01T13:27:38;6.30;1.00
6355;DHT22;3210;48.708;9.030;2023-03-01T13:30:41;6.30;1.00
6355;DHT22;3210;48.708;9.030;2023-03-01T13:33:40;6.30;1.00
6355;DHT22;3210;48.708;9.030;2023-03-01T13:36:08;6.40;1.00
6355;DHT22;3210;48.708;9.030;2023-03-01T13:38:54;6.50;1.00
6355;DHT22;3210;48.708;9.030;2023-03-01T13:41:50;6.70;1.00
6355;DHT22;3210;48.708;9.030;2023-03-01T13:44:25;6.80;1.00
6355;DHT22;3210;48.708;9.030;2023-03-01T13:46:57;6.90;1.00
6355;DHT22;3210;48.708;9.030;2023-03-01T13:49:27;6.90;1.00
6355;DHT22;3210;48.708;9.030;2023-03-01T13:51:55;6.70;1.00
6355;DHT22;3210;48.708;9.030;2023-03-01T13:54:26;6.70;1.00
6355;DHT22;3210;48.708;9.030;2023-03-01T13:56:55;6.70;1.00
6355;DHT22;3210;48.708;9.030;2023-03-01T13:59:22;6.60;1.00
6355;DHT22;3210;48.708;9.030;2023-03-01T14:01:54;6.60;1.00
6355;DHT22;3210;48.708;9.030;2023-03-01T14:04:23;6.70;1.00
6355;DHT22;3210;48.708;9.030;2023-03-01T14:06:51;6.70;1.00
6355;DHT22;3210;48.708;9.030;2023-03-01T14:09:20;6.40;1.00
6355;DHT22;3210;48.708;9.030;2023-03-01T14:12:06;6.20;1.00
6355;DHT22;3210;48.708;9.030;2023-03-01T14:14:45;6.00;1.00
6355;DHT22;3210;48.708;9.030;2023-03-01T14:17:23;6.10;1.00
6355;DHT22;3210;48.708;9.030;2023-03-01T14:19:56;6.00;1.00
6355;DHT22;3210;48.708;9.030;2023-03-01T14:22:25;6.10;1.00
6355;DHT22;3210;48.708;9.030;2023-03-01T14:24:56;6.10;1.00
6355;DHT22;3210;48.708;9.030;2023-03-01T14:27:26;6.20;1.00
6355;DHT22;3210;48.708;9.030;2023-03-01T14:29:57;6.30;1.00
6355;DHT22;3210;48.708;9.030;2023-03-01T14:32:27;6.40;1.00
6355;DHT22;3210;48.708;9.030;2023-03-01T14:34:55;6.40;1.00
6355;DHT22;3210;48.708;9.030;2023-03-01T14:37:25;6.20;1.00
6355;DHT22;3210;48.708;9.030;2023-03-01T14:39:52;5.90;1.00
6355;DHT22;3210;48.708;9.030;2023-03-01T14:42:21;5.90;1.00
6355;DHT22;3210;48.708;9.030;2023-03-01T14:44:50;6.00;1.00
6355;DHT22;3210;48.708;9.030;2023-03-01T14:47:25;6.10;1.00
6355;DHT22;3210;48.708;9.030;2023-03-01T14:49:58;6.00;1.00
6355;DHT22;3210;48.708;9.030;2023-03-01T14:52:32;5.90;1.00
6355;DHT22;3210;48.708;9.030;2023-03-01T14:55:03;5.90;1.00
6355;DHT22;3210;48.708;9.030;2023-03-01T14:57:30;6.00;1.00
6355;DHT22;3210;48.708;9.030;2023-03-01T14:59:58;5.90;1.00
6355;DHT22;3210;48.708;9.030;2023-03-01T15:02:31;5.80;1.00
6355;DHT22;3210;48.708;9.030;2023-03-01T15:05:02;5.90;1.00
6355;DHT22;3210;48.708;9.030;2023-03-01T15:07:32;5.80;1.00
6355;DHT22;3210;48.708;9.030;2023-03-01T15:10:01;5.80;1.00
6355;DHT22;3210;48.708;9.030;2023-03-01T15:12:39;5.80;1.00
6355;DHT22;3210;48.708;9.030;2023-03-01T15:15:37;5.90;1.00
6355;DHT22;3210;48.708;9.030;2023-03-01T15:18:13;5.70;1.00
6355;DHT22;3210;48.708;9.030;2023-03-01T15:20:41;5.70;1.00
6355;DHT22;3210;48.708;9.030;2023-03-01T15:23:19;5.70;1.00
6355;DHT22;3210;48.708;9.030;2023-03-01T15:25:46;5.60;1.00
6355;DHT22;3210;48.708;9.030;2023-03-01T15:28:20;5.70;1.00
6355;DHT22;3210;48.708;9.030;2023-03-01T15:30:54;5.50;1.00
6355;DHT22;3210;48.708;9.030;2023-03-01T15:33:34;5.60;1.00
6355;DHT22;3210;48.708;9.030;2023-03-01T15:36:03;5.60;1.00
6355;DHT22;3210;48.708;9.030;2023-03-01T15:38:52;5.70;1.00
6355;DHT22;3210;48.708;9.030;2023-03-01T15:41:25;5.70;1.00
6355;DHT22;3210;48.708;9.030;2023-03-01T15:43:52;5.70;1.00
6355;DHT22;3210;48.708;9.030;2023-03-01T15:46:25;5.50;1.00
6355;DHT22;3210;48.708;9.030;2023-03-01T15:48:54;5.40;1.00
6355;DHT22;3210;48.708;9.030;2023-03-01T15:51:29;5.40;1.00
6355;DHT22;3210;48.708;9.030;2023-03-01T15:53:59;5.30;1.00
6355;DHT22;3210;48.708;9.030;2023-03-01T15:56:26;5.30;1.00
6355;DHT22;3210;48.708;9.030;2023-03-01T15:58:53;5.20;1.00
6355;DHT22;3210;48.708;9.030;2023-03-01T16:01:23;5.20;1.00
6355;DHT22;3210;48.708;9.030;2023-03-01T16:03:50;5.10;1.00
6355;DHT22;3210;48.708;9.030;2023-03-01T16:06:17;5.10;1.00
6355;DHT22;3210;48.708;9.030;2023-03-01T16:08:45;5.10;1.00
6355;DHT22;3210;48.708;9.030;2023-03-01T16:11:15;5.00;1.00
6355;DHT22;3210;48.708;9.030;2023-03-01T16:13:43;5.00;1.00
6355;DHT22;3210;48.708;9.030;2023-03-01T16:16:11;5.00;1.00
6355;DHT22;3210;48.708;9.030;2023-03-01T16:18:40;5.00;1.00
6355;DHT22;3210;48.708;9.030;2023-03-01T16:21:12;4.90;1.00
6355;DHT22;3210;48.708;9.030;2023-03-01T16:23:39;5.00;1.00
6355;DHT22;3210;48.708;9.030;2023-03-01T16:26:07;4.90;1.00
6355;DHT22;3210;48.708;9.030;2023-03-01T16:28:34;4.90;1.00
6355;DHT22;3210;48.708;9.030;2023-03-01T16:31:00;4.80;1.00
6355;DHT22;3210;48.708;9.030;2023-03-01T16:33:27;4.80;1.00
6355;DHT22;3210;48.708;9.030;2023-03-01T16:35:54;4.80;1.00
6355;DHT22;3210;48.708;9.030;2023-03-01T16:38:21;4.70;1.00
6355;DHT22;3210;48.708;9.030;2023-03-01T16:40:50;4.70;1.00
6355;DHT22;3210;48.708;9.030;2023-03-01T16:43:18;4.60;1.00
6355;DHT22;3210;48.708;9.030;2023-03-01T16:45:45;4.60;1.00
6355;DHT22;3210;48.708;9.030;2023-03-01T16:48:12;4.50;1.00
6355;DHT22;3210;48.708;9.030;2023-03-01T16:50:39;4.50;1.00